BTK6761 WAAA-WADD
Flight info
| Callsign | BTK6761 |
|---|---|
| Flight time | 1h 5m |
| Altitude | 38000 |
| Route | LIPOT W41 PEDET |
| Aircraft | A320/M-SDE3FGHIRWY/LB1 |
Departure
| Time | 2026-04-27 13:37 |
|---|---|
| Airport | Sultan Hasanuddin International Airport (WAAA) |
Arrival
| Time | 2026-04-27 14:43 |
|---|---|
| Airport | Denpasar I Gusti Ngurah Rai International Airport (WADD) |
| Time | Latitude | Longitude | Altitude | Speed | Heading |
|---|---|---|---|---|---|
| 2026-04-27 13:08 | -5.07758 | 119.54739 | 41 ft | 0 kts | 300° |
| 2026-04-27 13:27 | -5.07767 | 119.54754 | 41 ft | 4 kts | 296° |
| 2026-04-27 13:27 | -5.07777 | 119.54779 | 38 ft | 4 kts | 283° |
| 2026-04-27 13:27 | -5.07778 | 119.54804 | 37 ft | 4 kts | 242° |
| 2026-04-27 13:28 | -5.07772 | 119.54813 | 39 ft | 0 kts | 210° |
| 2026-04-27 13:30 | -5.07780 | 119.54808 | 37 ft | 5 kts | 210° |
| 2026-04-27 13:30 | -5.07819 | 119.54786 | 41 ft | 7 kts | 210° |
| 2026-04-27 13:30 | -5.07868 | 119.54757 | 40 ft | 9 kts | 210° |
| 2026-04-27 13:30 | -5.07927 | 119.54723 | 41 ft | 10 kts | 205° |
| 2026-04-27 13:31 | -5.08001 | 119.54722 | 41 ft | 9 kts | 142° |
| 2026-04-27 13:31 | -5.08030 | 119.54781 | 41 ft | 10 kts | 120° |
| 2026-04-27 13:31 | -5.08072 | 119.54845 | 41 ft | 12 kts | 141° |
| 2026-04-27 13:31 | -5.08146 | 119.54825 | 41 ft | 12 kts | 210° |
| 2026-04-27 13:32 | -5.08224 | 119.54780 | 41 ft | 14 kts | 210° |
| 2026-04-27 13:32 | -5.08309 | 119.54731 | 4 ft | 14 kts | 210° |
| 2026-04-27 13:32 | -5.08398 | 119.54681 | 4 ft | 15 kts | 210° |
| 2026-04-27 13:32 | -5.08486 | 119.54629 | 4 ft | 14 kts | 210° |
| 2026-04-27 13:33 | -5.08566 | 119.54583 | 5 ft | 13 kts | 210° |
| 2026-04-27 13:33 | -5.08637 | 119.54542 | 5 ft | 11 kts | 210° |
| 2026-04-27 13:33 | -5.08699 | 119.54506 | 5 ft | 10 kts | 209° |
| 2026-04-27 13:33 | -5.08753 | 119.54476 | 5 ft | 8 kts | 209° |
| 2026-04-27 13:34 | -5.08799 | 119.54449 | 5 ft | 7 kts | 210° |
| 2026-04-27 13:34 | -5.08837 | 119.54427 | 2 ft | 6 kts | 210° |
| 2026-04-27 13:34 | -5.08886 | 119.54399 | 2 ft | 13 kts | 210° |
| 2026-04-27 13:34 | -5.08971 | 119.54349 | 2 ft | 14 kts | 210° |
| 2026-04-27 13:35 | -5.09063 | 119.54296 | 1 ft | 17 kts | 210° |
| 2026-04-27 13:35 | -5.09160 | 119.54290 | -1 ft | 11 kts | 139° |
| 2026-04-27 13:35 | -5.09175 | 119.54311 | 1 ft | 0 kts | 118° |
| 2026-04-27 13:36 | -5.09178 | 119.54316 | 2 ft | 3 kts | 118° |
| 2026-04-27 13:36 | -5.09204 | 119.54364 | 4 ft | 12 kts | 118° |
| 2026-04-27 13:36 | -5.09202 | 119.54422 | 5 ft | 6 kts | 34° |
| 2026-04-27 13:36 | -5.09145 | 119.54454 | 6 ft | 22 kts | 29° |
| 2026-04-27 13:37 | -5.08777 | 119.54666 | 7 ft | 95 kts | 30° |
| 2026-04-27 13:37 | -5.08029 | 119.55096 | 4 ft | 150 kts | 30° |
| 2026-04-27 13:37 | -5.07057 | 119.55665 | 448 ft | 162 kts | 29° |
| 2026-04-27 13:37 | -5.05981 | 119.55920 | 1159 ft | 162 kts | 352° |
| 2026-04-27 13:38 | -5.04847 | 119.55804 | 1782 ft | 168 kts | 356° |
| 2026-04-27 13:38 | -5.03615 | 119.55789 | 2133 ft | 186 kts | 0° |
| 2026-04-27 13:38 | -5.02256 | 119.55799 | 2447 ft | 206 kts | 1° |
| 2026-04-27 13:38 | -5.00730 | 119.55820 | 2754 ft | 232 kts | 1° |
| 2026-04-27 13:39 | -4.99042 | 119.55846 | 3176 ft | 254 kts | 1° |
| 2026-04-27 13:39 | -4.97226 | 119.55741 | 3774 ft | 268 kts | 343° |
| 2026-04-27 13:39 | -4.95662 | 119.54741 | 4550 ft | 274 kts | 309° |
| 2026-04-27 13:39 | -4.94900 | 119.53004 | 5370 ft | 278 kts | 276° |
| 2026-04-27 13:40 | -4.94903 | 119.51063 | 6207 ft | 281 kts | 266° |
| 2026-04-27 13:40 | -4.95100 | 119.49111 | 7040 ft | 282 kts | 263° |
| 2026-04-27 13:40 | -4.95317 | 119.47143 | 7795 ft | 286 kts | 265° |
| 2026-04-27 13:40 | -4.95443 | 119.45158 | 8524 ft | 291 kts | 268° |
| 2026-04-27 13:41 | -4.95488 | 119.43117 | 9298 ft | 295 kts | 270° |
| 2026-04-27 13:41 | -4.95477 | 119.41042 | 9988 ft | 301 kts | 271° |
| 2026-04-27 13:41 | -4.95439 | 119.38901 | 10426 ft | 317 kts | 271° |
| 2026-04-27 13:41 | -4.95381 | 119.36614 | 10600 ft | 340 kts | 272° |
| 2026-04-27 13:42 | -4.95314 | 119.34192 | 10989 ft | 352 kts | 272° |
| 2026-04-27 13:42 | -4.95245 | 119.31715 | 11586 ft | 358 kts | 272° |
| 2026-04-27 13:42 | -4.95178 | 119.29206 | 12219 ft | 362 kts | 272° |
| 2026-04-27 13:42 | -4.95111 | 119.26668 | 12845 ft | 366 kts | 272° |
| 2026-04-27 13:43 | -4.95045 | 119.24098 | 13467 ft | 370 kts | 272° |
| 2026-04-27 13:43 | -4.94980 | 119.21511 | 13866 ft | 373 kts | 272° |
| 2026-04-27 13:43 | -4.94916 | 119.18911 | 13967 ft | 373 kts | 272° |
| 2026-04-27 13:43 | -4.94850 | 119.16306 | 13988 ft | 373 kts | 272° |
| 2026-04-27 13:44 | -4.94784 | 119.13708 | 13989 ft | 373 kts | 272° |
| 2026-04-27 13:44 | -4.94719 | 119.11111 | 13989 ft | 372 kts | 272° |
| 2026-04-27 13:44 | -4.94654 | 119.08506 | 13989 ft | 372 kts | 272° |
| 2026-04-27 13:44 | -4.94588 | 119.05907 | 13989 ft | 372 kts | 272° |
| 2026-04-27 13:45 | -4.94522 | 119.03343 | 13989 ft | 372 kts | 272° |
| 2026-04-27 13:45 | -4.94452 | 119.00709 | 13990 ft | 372 kts | 272° |
| 2026-04-27 13:45 | -4.94382 | 118.98113 | 13989 ft | 372 kts | 272° |
| 2026-04-27 13:45 | -4.94315 | 118.95550 | 13986 ft | 372 kts | 272° |
| 2026-04-27 13:46 | -4.94248 | 118.92949 | 13988 ft | 372 kts | 272° |
| 2026-04-27 13:46 | -4.94183 | 118.90351 | 13986 ft | 372 kts | 272° |
| 2026-04-27 13:46 | -4.94118 | 118.87757 | 13986 ft | 372 kts | 272° |
| 2026-04-27 13:46 | -4.94055 | 118.85161 | 13986 ft | 372 kts | 272° |
| 2026-04-27 13:47 | -4.93992 | 118.82562 | 13986 ft | 372 kts | 272° |
| 2026-04-27 13:47 | -4.93928 | 118.79963 | 13987 ft | 372 kts | 272° |
| 2026-04-27 13:47 | -4.93930 | 118.77366 | 13988 ft | 372 kts | 265° |
| 2026-04-27 13:47 | -4.94420 | 118.74819 | 13990 ft | 373 kts | 252° |
| 2026-04-27 13:48 | -4.95477 | 118.72439 | 14230 ft | 377 kts | 239° |
| 2026-04-27 13:48 | -4.97018 | 118.70302 | 14829 ft | 379 kts | 231° |
| 2026-04-27 13:48 | -4.98664 | 118.68227 | 15401 ft | 381 kts | 231° |
| 2026-04-27 13:48 | -5.00302 | 118.66157 | 15947 ft | 385 kts | 232° |
| 2026-04-27 13:49 | -5.01973 | 118.64043 | 16479 ft | 388 kts | 232° |
| 2026-04-27 13:49 | -5.03655 | 118.61916 | 17019 ft | 391 kts | 232° |
| 2026-04-27 13:49 | -5.05361 | 118.59765 | 17530 ft | 395 kts | 232° |
| 2026-04-27 13:49 | -5.07080 | 118.57598 | 18040 ft | 398 kts | 232° |
| 2026-04-27 13:50 | -5.08228 | 118.56150 | 18348 ft | 400 kts | 232° |
| 2026-04-27 13:50 | -5.10564 | 118.53207 | 18926 ft | 405 kts | 231° |
| 2026-04-27 13:50 | -5.11729 | 118.51742 | 19208 ft | 407 kts | 231° |
| 2026-04-27 13:50 | -5.13499 | 118.49514 | 19643 ft | 410 kts | 231° |
| 2026-04-27 13:51 | -5.15285 | 118.47263 | 20069 ft | 413 kts | 231° |
| 2026-04-27 13:51 | -5.17083 | 118.44998 | 20487 ft | 416 kts | 231° |
| 2026-04-27 13:51 | -5.18893 | 118.42719 | 20902 ft | 419 kts | 231° |
| 2026-04-27 13:51 | -5.20714 | 118.40429 | 21314 ft | 422 kts | 231° |
| 2026-04-27 13:52 | -5.22548 | 118.38121 | 21720 ft | 425 kts | 231° |
| 2026-04-27 13:52 | -5.24514 | 118.35900 | 22095 ft | 427 kts | 223° |
| 2026-04-27 13:52 | -5.26818 | 118.34008 | 22462 ft | 430 kts | 216° |
| 2026-04-27 13:52 | -5.29232 | 118.32217 | 22844 ft | 433 kts | 216° |
| 2026-04-27 13:53 | -5.34108 | 118.28601 | 23586 ft | 438 kts | 215° |
| 2026-04-27 13:53 | -5.36564 | 118.26772 | 23898 ft | 441 kts | 215° |
| 2026-04-27 13:53 | -5.39036 | 118.24928 | 24200 ft | 444 kts | 216° |
| 2026-04-27 13:54 | -5.41526 | 118.23072 | 24522 ft | 446 kts | 216° |
| 2026-04-27 13:54 | -5.43991 | 118.21237 | 24837 ft | 448 kts | 216° |
| 2026-04-27 13:54 | -5.46502 | 118.19367 | 25143 ft | 450 kts | 215° |
| 2026-04-27 13:54 | -5.49026 | 118.17485 | 25467 ft | 452 kts | 215° |
| 2026-04-27 13:55 | -5.51557 | 118.15595 | 25769 ft | 454 kts | 215° |
| 2026-04-27 13:55 | -5.54099 | 118.13699 | 26074 ft | 456 kts | 215° |
| 2026-04-27 13:55 | -5.56753 | 118.11939 | 26372 ft | 457 kts | 207° |
| 2026-04-27 13:55 | -5.59623 | 118.10583 | 26667 ft | 457 kts | 201° |
| 2026-04-27 13:56 | -5.62549 | 118.09313 | 26967 ft | 459 kts | 201° |
| 2026-04-27 13:56 | -5.65489 | 118.08032 | 27263 ft | 461 kts | 201° |
| 2026-04-27 13:56 | -5.68433 | 118.06745 | 27567 ft | 463 kts | 202° |
| 2026-04-27 13:56 | -5.71392 | 118.05447 | 27864 ft | 464 kts | 202° |
| 2026-04-27 13:57 | -5.74359 | 118.04142 | 28131 ft | 467 kts | 202° |
| 2026-04-27 13:57 | -5.77339 | 118.02831 | 28408 ft | 469 kts | 202° |
| 2026-04-27 13:57 | -5.80336 | 118.01516 | 28692 ft | 470 kts | 202° |
| 2026-04-27 13:57 | -5.83342 | 118.00202 | 28962 ft | 472 kts | 202° |
| 2026-04-27 13:58 | -5.86363 | 117.98881 | 29210 ft | 474 kts | 202° |
| 2026-04-27 13:58 | -5.89386 | 117.97557 | 29471 ft | 475 kts | 202° |
| 2026-04-27 13:58 | -5.92423 | 117.96225 | 29730 ft | 477 kts | 202° |
| 2026-04-27 13:58 | -5.95470 | 117.94886 | 29974 ft | 479 kts | 202° |
| 2026-04-27 13:59 | -5.98528 | 117.93544 | 30181 ft | 480 kts | 202° |
| 2026-04-27 13:59 | -6.01596 | 117.92200 | 30405 ft | 482 kts | 202° |
| 2026-04-27 13:59 | -6.04672 | 117.90852 | 30622 ft | 483 kts | 202° |
| 2026-04-27 13:59 | -6.07747 | 117.89500 | 30908 ft | 482 kts | 202° |
| 2026-04-27 14:00 | -6.10810 | 117.88151 | 31223 ft | 480 kts | 202° |
| 2026-04-27 14:00 | -6.13870 | 117.86806 | 31546 ft | 479 kts | 202° |
| 2026-04-27 14:00 | -6.16923 | 117.85467 | 31877 ft | 477 kts | 202° |
| 2026-04-27 14:00 | -6.19967 | 117.84135 | 32214 ft | 476 kts | 202° |
| 2026-04-27 14:01 | -6.22994 | 117.82810 | 32539 ft | 474 kts | 202° |
| 2026-04-27 14:01 | -6.25981 | 117.81500 | 32873 ft | 473 kts | 202° |
| 2026-04-27 14:01 | -6.28993 | 117.80178 | 33214 ft | 471 kts | 202° |
| 2026-04-27 14:01 | -6.32001 | 117.78856 | 33550 ft | 470 kts | 202° |
| 2026-04-27 14:02 | -6.34993 | 117.77540 | 33891 ft | 469 kts | 202° |
| 2026-04-27 14:02 | -6.37974 | 117.76232 | 34184 ft | 467 kts | 202° |
| 2026-04-27 14:02 | -6.40959 | 117.74922 | 34457 ft | 467 kts | 202° |
| 2026-04-27 14:02 | -6.43931 | 117.73616 | 34712 ft | 466 kts | 202° |
| 2026-04-27 14:03 | -6.46898 | 117.72312 | 34962 ft | 466 kts | 202° |
| 2026-04-27 14:03 | -6.49866 | 117.71011 | 35206 ft | 465 kts | 202° |
| 2026-04-27 14:03 | -6.52834 | 117.69714 | 35451 ft | 465 kts | 202° |
| 2026-04-27 14:03 | -6.55802 | 117.68416 | 35692 ft | 465 kts | 202° |
| 2026-04-27 14:04 | -6.58763 | 117.67114 | 35909 ft | 464 kts | 202° |
| 2026-04-27 14:04 | -6.61718 | 117.65811 | 36141 ft | 464 kts | 202° |
| 2026-04-27 14:04 | -6.64666 | 117.64489 | 36360 ft | 464 kts | 205° |
| 2026-04-27 14:04 | -6.67405 | 117.62851 | 36570 ft | 465 kts | 214° |
| 2026-04-27 14:05 | -6.69905 | 117.60747 | 36775 ft | 467 kts | 224° |
| 2026-04-27 14:05 | -6.72066 | 117.58298 | 36978 ft | 468 kts | 229° |
| 2026-04-27 14:05 | -6.74162 | 117.55793 | 37173 ft | 468 kts | 229° |
| 2026-04-27 14:05 | -6.76265 | 117.53289 | 37390 ft | 467 kts | 229° |
| 2026-04-27 14:06 | -6.78363 | 117.50795 | 37599 ft | 467 kts | 228° |
| 2026-04-27 14:06 | -6.80460 | 117.48303 | 37804 ft | 466 kts | 228° |
| 2026-04-27 14:06 | -6.82558 | 117.45813 | 37892 ft | 466 kts | 229° |
| 2026-04-27 14:07 | -6.86749 | 117.40848 | 37901 ft | 465 kts | 229° |
| 2026-04-27 14:07 | -6.90912 | 117.35905 | 37906 ft | 465 kts | 229° |
| 2026-04-27 14:08 | -6.95090 | 117.30939 | 37907 ft | 465 kts | 229° |
| 2026-04-27 14:08 | -6.99267 | 117.25961 | 37904 ft | 465 kts | 229° |
| 2026-04-27 14:09 | -7.03449 | 117.20991 | 37907 ft | 466 kts | 229° |
| 2026-04-27 14:09 | -7.07625 | 117.16030 | 37908 ft | 461 kts | 229° |
| 2026-04-27 14:10 | -7.11765 | 117.11101 | 37825 ft | 464 kts | 229° |
| 2026-04-27 14:10 | -7.13843 | 117.08622 | 37407 ft | 462 kts | 229° |
| 2026-04-27 14:10 | -7.15918 | 117.06150 | 36716 ft | 463 kts | 229° |
| 2026-04-27 14:10 | -7.17998 | 117.03670 | 35995 ft | 464 kts | 229° |
| 2026-04-27 14:11 | -7.20088 | 117.01179 | 35157 ft | 466 kts | 229° |
| 2026-04-27 14:11 | -7.22199 | 116.98669 | 34345 ft | 473 kts | 229° |
| 2026-04-27 14:11 | -7.24331 | 116.96135 | 33485 ft | 476 kts | 229° |
| 2026-04-27 14:11 | -7.26483 | 116.93575 | 32582 ft | 480 kts | 229° |
| 2026-04-27 14:12 | -7.28649 | 116.91001 | 31711 ft | 482 kts | 229° |
| 2026-04-27 14:12 | -7.30827 | 116.88412 | 30865 ft | 485 kts | 229° |
| 2026-04-27 14:12 | -7.33008 | 116.85810 | 30043 ft | 486 kts | 229° |
| 2026-04-27 14:12 | -7.35190 | 116.83202 | 29103 ft | 487 kts | 229° |
| 2026-04-27 14:13 | -7.37378 | 116.80587 | 28177 ft | 487 kts | 229° |
| 2026-04-27 14:13 | -7.39562 | 116.77981 | 27275 ft | 482 kts | 229° |
| 2026-04-27 14:13 | -7.41666 | 116.75474 | 26419 ft | 468 kts | 229° |
| 2026-04-27 14:13 | -7.43738 | 116.73002 | 25584 ft | 456 kts | 229° |
| 2026-04-27 14:14 | -7.45759 | 116.70590 | 24771 ft | 445 kts | 229° |
| 2026-04-27 14:14 | -7.47730 | 116.68235 | 23984 ft | 435 kts | 229° |
| 2026-04-27 14:14 | -7.49657 | 116.65932 | 23312 ft | 426 kts | 229° |
| 2026-04-27 14:14 | -7.51563 | 116.63658 | 22779 ft | 422 kts | 229° |
| 2026-04-27 14:15 | -7.53473 | 116.61434 | 22635 ft | 419 kts | 228° |
| 2026-04-27 14:15 | -7.55407 | 116.59238 | 22487 ft | 417 kts | 227° |
| 2026-04-27 14:15 | -7.57338 | 116.57073 | 21992 ft | 413 kts | 227° |
| 2026-04-27 14:15 | -7.59253 | 116.54931 | 21467 ft | 410 kts | 227° |
| 2026-04-27 14:16 | -7.61153 | 116.52795 | 20967 ft | 407 kts | 227° |
| 2026-04-27 14:16 | -7.63029 | 116.50675 | 20483 ft | 404 kts | 227° |
| 2026-04-27 14:16 | -7.64804 | 116.48486 | 20016 ft | 401 kts | 237° |
| 2026-04-27 14:16 | -7.66066 | 116.45996 | 19561 ft | 398 kts | 245° |
| 2026-04-27 14:17 | -7.67214 | 116.43500 | 19111 ft | 396 kts | 245° |
| 2026-04-27 14:17 | -7.68364 | 116.40979 | 18666 ft | 394 kts | 245° |
| 2026-04-27 14:17 | -7.69503 | 116.38474 | 18243 ft | 391 kts | 245° |
| 2026-04-27 14:17 | -7.70633 | 116.35986 | 17924 ft | 390 kts | 245° |
| 2026-04-27 14:18 | -7.71764 | 116.33499 | 17903 ft | 390 kts | 245° |
| 2026-04-27 14:18 | -7.72893 | 116.31010 | 17911 ft | 390 kts | 245° |
| 2026-04-27 14:18 | -7.74024 | 116.28517 | 17910 ft | 390 kts | 245° |
| 2026-04-27 14:18 | -7.75155 | 116.26029 | 17907 ft | 391 kts | 245° |
| 2026-04-27 14:19 | -7.76290 | 116.23535 | 17910 ft | 391 kts | 245° |
| 2026-04-27 14:19 | -7.77421 | 116.21046 | 17908 ft | 390 kts | 245° |
| 2026-04-27 14:19 | -7.78555 | 116.18556 | 17908 ft | 391 kts | 245° |
| 2026-04-27 14:19 | -7.79688 | 116.16065 | 17910 ft | 390 kts | 245° |
| 2026-04-27 14:20 | -7.80819 | 116.13576 | 17909 ft | 390 kts | 245° |
| 2026-04-27 14:20 | -7.81951 | 116.11089 | 17908 ft | 390 kts | 245° |
| 2026-04-27 14:20 | -7.83084 | 116.08600 | 17909 ft | 390 kts | 245° |
| 2026-04-27 14:20 | -7.84213 | 116.06113 | 17909 ft | 390 kts | 245° |
| 2026-04-27 14:21 | -7.85326 | 116.03660 | 17910 ft | 390 kts | 245° |
| 2026-04-27 14:21 | -7.86470 | 116.01136 | 17910 ft | 390 kts | 245° |
| 2026-04-27 14:21 | -7.87598 | 115.98647 | 17908 ft | 390 kts | 245° |
| 2026-04-27 14:21 | -7.88729 | 115.96158 | 17911 ft | 390 kts | 245° |
| 2026-04-27 14:22 | -7.89864 | 115.93664 | 17911 ft | 390 kts | 245° |
| 2026-04-27 14:22 | -7.90995 | 115.91177 | 17906 ft | 390 kts | 245° |
| 2026-04-27 14:22 | -7.92143 | 115.88694 | 17910 ft | 390 kts | 241° |
| 2026-04-27 14:22 | -7.93642 | 115.86469 | 17662 ft | 386 kts | 231° |
| 2026-04-27 14:23 | -7.95299 | 115.84349 | 17182 ft | 383 kts | 231° |
| 2026-04-27 14:23 | -7.96961 | 115.82245 | 16721 ft | 381 kts | 230° |
| 2026-04-27 14:23 | -7.98607 | 115.80159 | 16277 ft | 378 kts | 230° |
| 2026-04-27 14:23 | -8.00239 | 115.78089 | 15838 ft | 376 kts | 230° |
| 2026-04-27 14:24 | -8.01863 | 115.76029 | 15418 ft | 373 kts | 230° |
| 2026-04-27 14:24 | -8.03473 | 115.73985 | 14985 ft | 371 kts | 230° |
| 2026-04-27 14:24 | -8.05072 | 115.71954 | 14557 ft | 368 kts | 230° |
| 2026-04-27 14:24 | -8.06661 | 115.69934 | 14152 ft | 366 kts | 230° |
| 2026-04-27 14:25 | -8.08244 | 115.67919 | 13931 ft | 366 kts | 230° |
| 2026-04-27 14:25 | -8.09821 | 115.65911 | 13916 ft | 366 kts | 230° |
| 2026-04-27 14:25 | -8.11405 | 115.63895 | 13933 ft | 366 kts | 230° |
| 2026-04-27 14:25 | -8.12968 | 115.61903 | 13932 ft | 366 kts | 230° |
| 2026-04-27 14:26 | -8.14548 | 115.59888 | 13931 ft | 366 kts | 230° |
| 2026-04-27 14:26 | -8.16127 | 115.57875 | 13932 ft | 366 kts | 230° |
| 2026-04-27 14:26 | -8.17708 | 115.55859 | 13932 ft | 366 kts | 230° |
| 2026-04-27 14:26 | -8.19285 | 115.53846 | 13934 ft | 366 kts | 230° |
| 2026-04-27 14:27 | -8.20864 | 115.51830 | 13934 ft | 366 kts | 230° |
| 2026-04-27 14:27 | -8.22441 | 115.49816 | 13943 ft | 366 kts | 230° |
| 2026-04-27 14:27 | -8.24010 | 115.47800 | 13945 ft | 366 kts | 230° |
| 2026-04-27 14:27 | -8.25579 | 115.45782 | 13945 ft | 365 kts | 230° |
| 2026-04-27 14:28 | -8.27150 | 115.43764 | 13945 ft | 366 kts | 230° |
| 2026-04-27 14:28 | -8.28722 | 115.41742 | 13943 ft | 366 kts | 230° |
| 2026-04-27 14:28 | -8.30292 | 115.39722 | 13943 ft | 365 kts | 231° |
| 2026-04-27 14:28 | -8.31862 | 115.37704 | 13948 ft | 365 kts | 230° |
| 2026-04-27 14:29 | -8.33431 | 115.35688 | 13948 ft | 365 kts | 230° |
| 2026-04-27 14:29 | -8.35000 | 115.33670 | 13947 ft | 365 kts | 230° |
| 2026-04-27 14:29 | -8.36565 | 115.31656 | 13830 ft | 363 kts | 230° |
| 2026-04-27 14:29 | -8.38115 | 115.29660 | 13374 ft | 361 kts | 230° |
| 2026-04-27 14:30 | -8.39657 | 115.27670 | 12917 ft | 358 kts | 230° |
| 2026-04-27 14:30 | -8.41138 | 115.25655 | 12470 ft | 357 kts | 238° |
| 2026-04-27 14:30 | -8.42110 | 115.23360 | 12032 ft | 355 kts | 250° |
| 2026-04-27 14:30 | -8.42910 | 115.21008 | 11591 ft | 353 kts | 250° |
| 2026-04-27 14:31 | -8.43684 | 115.18693 | 11164 ft | 351 kts | 250° |
| 2026-04-27 14:31 | -8.44459 | 115.16368 | 10745 ft | 349 kts | 250° |
| 2026-04-27 14:31 | -8.45228 | 115.14053 | 10392 ft | 344 kts | 250° |
| 2026-04-27 14:31 | -8.45975 | 115.11803 | 10270 ft | 331 kts | 250° |
| 2026-04-27 14:32 | -8.46691 | 115.09635 | 10138 ft | 317 kts | 250° |
| 2026-04-27 14:32 | -8.47375 | 115.07563 | 9732 ft | 307 kts | 250° |
| 2026-04-27 14:32 | -8.48044 | 115.05528 | 9173 ft | 303 kts | 250° |
| 2026-04-27 14:32 | -8.48705 | 115.03515 | 8658 ft | 301 kts | 250° |
| 2026-04-27 14:33 | -8.49359 | 115.01520 | 8219 ft | 297 kts | 251° |
| 2026-04-27 14:33 | -8.50181 | 114.99641 | 7816 ft | 290 kts | 232° |
| 2026-04-27 14:33 | -8.51543 | 114.98169 | 7461 ft | 285 kts | 221° |
| 2026-04-27 14:33 | -8.53003 | 114.96816 | 7093 ft | 284 kts | 221° |
| 2026-04-27 14:34 | -8.54464 | 114.95484 | 6733 ft | 281 kts | 220° |
| 2026-04-27 14:34 | -8.55914 | 114.94169 | 6390 ft | 279 kts | 220° |
| 2026-04-27 14:34 | -8.56868 | 114.93305 | 6137 ft | 278 kts | 220° |
| 2026-04-27 14:34 | -8.58301 | 114.92007 | 5761 ft | 275 kts | 220° |
| 2026-04-27 14:35 | -8.59723 | 114.90719 | 5371 ft | 274 kts | 220° |
| 2026-04-27 14:35 | -8.61608 | 114.88998 | 4829 ft | 273 kts | 221° |
| 2026-04-27 14:35 | -8.62537 | 114.88147 | 4579 ft | 271 kts | 220° |
| 2026-04-27 14:35 | -8.63963 | 114.86904 | 4159 ft | 269 kts | 214° |
| 2026-04-27 14:36 | -8.65610 | 114.86068 | 3734 ft | 263 kts | 190° |
| 2026-04-27 14:36 | -8.67391 | 114.85954 | 3437 ft | 255 kts | 175° |
| 2026-04-27 14:36 | -8.69062 | 114.86329 | 3321 ft | 240 kts | 154° |
| 2026-04-27 14:36 | -8.70419 | 114.87220 | 3200 ft | 227 kts | 142° |
| 2026-04-27 14:37 | -8.71593 | 114.88230 | 3091 ft | 219 kts | 133° |
| 2026-04-27 14:37 | -8.72630 | 114.89353 | 2918 ft | 217 kts | 134° |
| 2026-04-27 14:37 | -8.73734 | 114.90371 | 2511 ft | 212 kts | 135° |
| 2026-04-27 14:37 | -8.74718 | 114.91460 | 2475 ft | 212 kts | 124° |
| 2026-04-27 14:38 | -8.75244 | 114.92840 | 2476 ft | 213 kts | 95° |
| 2026-04-27 14:38 | -8.75314 | 114.94339 | 2474 ft | 213 kts | 93° |
| 2026-04-27 14:38 | -8.75372 | 114.95840 | 2475 ft | 211 kts | 93° |
| 2026-04-27 14:38 | -8.75429 | 114.97274 | 2477 ft | 199 kts | 94° |
| 2026-04-27 14:39 | -8.75482 | 114.98644 | 2470 ft | 193 kts | 93° |
| 2026-04-27 14:39 | -8.75514 | 115.00000 | 2464 ft | 192 kts | 91° |
| 2026-04-27 14:39 | -8.75477 | 115.01303 | 2316 ft | 177 kts | 89° |
| 2026-04-27 14:39 | -8.75424 | 115.02487 | 2169 ft | 160 kts | 88° |
| 2026-04-27 14:40 | -8.75374 | 115.03570 | 2034 ft | 150 kts | 89° |
| 2026-04-27 14:40 | -8.75328 | 115.04605 | 1918 ft | 145 kts | 89° |
| 2026-04-27 14:40 | -8.75286 | 115.05618 | 1804 ft | 144 kts | 89° |
| 2026-04-27 14:40 | -8.75245 | 115.06609 | 1686 ft | 143 kts | 89° |
| 2026-04-27 14:41 | -8.75202 | 115.07625 | 1506 ft | 142 kts | 88° |
| 2026-04-27 14:41 | -8.75162 | 115.08610 | 1318 ft | 142 kts | 88° |
| 2026-04-27 14:41 | -8.75121 | 115.09613 | 1125 ft | 143 kts | 88° |
| 2026-04-27 14:41 | -8.75077 | 115.10623 | 895 ft | 143 kts | 88° |
| 2026-04-27 14:42 | -8.75031 | 115.11621 | 745 ft | 143 kts | 88° |
| 2026-04-27 14:42 | -8.74985 | 115.12633 | 569 ft | 145 kts | 89° |
| 2026-04-27 14:42 | -8.74961 | 115.13644 | 393 ft | 145 kts | 89° |
| 2026-04-27 14:42 | -8.74922 | 115.14658 | 220 ft | 145 kts | 88° |
| 2026-04-27 14:43 | -8.74885 | 115.15664 | 46 ft | 141 kts | 88° |
| 2026-04-27 14:43 | -8.74853 | 115.16505 | 29 ft | 83 kts | 88° |
| 2026-04-27 14:43 | -8.74837 | 115.16888 | 28 ft | 45 kts | 88° |
| 2026-04-27 14:43 | -8.74825 | 115.17187 | 27 ft | 40 kts | 87° |
| 2026-04-27 14:44 | -8.74757 | 115.17315 | 28 ft | 18 kts | 4° |
| 2026-04-27 14:44 | -8.74695 | 115.17314 | 31 ft | 1 kts | 357° |
| 2026-04-27 14:45 | -8.74667 | 115.17298 | 34 ft | 10 kts | 319° |
| 2026-04-27 14:45 | -8.74658 | 115.17228 | 32 ft | 10 kts | 267° |
| 2026-04-27 14:45 | -8.74661 | 115.17159 | 32 ft | 9 kts | 268° |
| 2026-04-27 14:45 | -8.74665 | 115.17061 | 32 ft | 19 kts | 267° |
| 2026-04-27 14:46 | -8.74671 | 115.16934 | 32 ft | 17 kts | 268° |
| 2026-04-27 14:46 | -8.74675 | 115.16820 | 32 ft | 16 kts | 267° |
| 2026-04-27 14:46 | -8.74680 | 115.16717 | 32 ft | 14 kts | 267° |
| 2026-04-27 14:46 | -8.74684 | 115.16623 | 32 ft | 13 kts | 268° |
| 2026-04-27 14:47 | -8.74687 | 115.16538 | 32 ft | 11 kts | 268° |
| 2026-04-27 14:47 | -8.74690 | 115.16462 | 32 ft | 10 kts | 268° |
| 2026-04-27 14:47 | -8.74693 | 115.16395 | 33 ft | 9 kts | 267° |
| 2026-04-27 14:47 | -8.74696 | 115.16336 | 34 ft | 8 kts | 268° |
| 2026-04-27 14:48 | -8.74693 | 115.16286 | 33 ft | 6 kts | 300° |
| 2026-04-27 14:48 | -8.74625 | 115.16276 | 33 ft | 11 kts | 357° |
| 2026-04-27 14:48 | -8.74573 | 115.16275 | 33 ft | 3 kts | 358° |
| 2026-04-27 14:49 | -8.74566 | 115.16274 | 33 ft | 0 kts | 357° |